Time;durP1;ratioP1;P1;durP2;ratioP2;P2;SDS_P1;SDS_P2;PMS_P1;PMS_P2;Temp;Humidity;BMP_temperature;BMP_pressure;BME280_temperature;BME280_humidity;BME280_pressure;Samples;Min_cycle;Max_cycle;Signal;HPM_P1;HPM_P2
2023/11/27 00:00:55;;;;;;;8.87;4.60;;;;;;;;;;4901272;29;20033;-82
2023/11/27 00:03:20;;;;;;;16.10;4.80;;;;;;;;;;4914488;29;20278;-82
2023/11/27 00:05:45;;;;;;;13.73;4.57;;;;;;;;;;4908639;29;20282;-81
2023/11/27 00:08:10;;;;;;;12.57;4.30;;;;;;;;;;4913249;29;20028;-82
2023/11/27 00:10:36;;;;;;;13.03;4.60;;;;;;;;;;4916410;29;20282;-82
2023/11/27 00:13:01;;;;;;;9.03;4.87;;;;;;;;;;4903199;29;20369;-82
2023/11/27 00:15:27;;;;;;;7.10;4.28;;;;;;;;;;4911276;29;20278;-81
2023/11/27 00:17:52;;;;;;;15.02;4.90;;;;;;;;;;4915998;29;20028;-81
2023/11/27 00:20:17;;;;;;;9.98;4.88;;;;;;;;;;4906906;29;20031;-81
2023/11/27 00:22:43;;;;;;;11.47;4.00;;;;;;;;;;4914319;29;20036;-81
2023/11/27 00:25:08;;;;;;;9.20;4.57;;;;;;;;;;4918283;29;20267;-82
2023/11/27 00:27:33;;;;;;;9.38;4.30;;;;;;;;;;4924452;29;20658;-82
2023/11/27 00:29:59;;;;;;;14.20;4.57;;;;;;;;;;4931035;29;20024;-81
2023/11/27 00:32:24;;;;;;;9.90;4.72;;;;;;;;;;4908839;29;20270;-81
2023/11/27 00:34:50;;;;;;;11.30;4.27;;;;;;;;;;4909655;29;20032;-81
2023/11/27 00:37:16;;;;;;;10.48;4.45;;;;;;;;;;4910996;29;20282;-81
2023/11/27 00:39:42;;;;;;;14.50;4.18;;;;;;;;;;4908733;29;20024;-82
2023/11/27 00:42:07;;;;;;;13.90;4.17;;;;;;;;;;4907680;29;20024;-82
2023/11/27 00:44:32;;;;;;;12.00;3.90;;;;;;;;;;4907778;29;20755;-82
2023/11/27 00:46:58;;;;;;;9.80;4.20;;;;;;;;;;4922407;29;20271;-82
2023/11/27 00:49:23;;;;;;;12.20;4.82;;;;;;;;;;4912054;29;20452;-81
2023/11/27 00:51:48;;;;;;;11.67;4.10;;;;;;;;;;4917415;29;20024;-81
2023/11/27 00:54:14;;;;;;;7.70;4.20;;;;;;;;;;4904851;29;20271;-81
2023/11/27 00:56:40;;;;;;;17.83;4.20;;;;;;;;;;4912008;29;20275;-82
2023/11/27 00:59:06;;;;;;;11.98;4.63;;;;;;;;;;4924568;29;20289;-82
2023/11/27 01:01:32;;;;;;;8.88;3.92;;;;;;;;;;4932819;29;20028;-81
2023/11/27 01:03:57;;;;;;;11.20;5.00;;;;;;;;;;4909018;29;20036;-82
2023/11/27 01:06:23;;;;;;;11.07;4.37;;;;;;;;;;4924683;29;20031;-82
2023/11/27 01:08:48;;;;;;;10.90;4.47;;;;;;;;;;4932688;29;20278;-81
2023/11/27 01:11:14;;;;;;;12.15;4.63;;;;;;;;;;4907912;29;20031;-82
2023/11/27 01:13:39;;;;;;;9.95;4.88;;;;;;;;;;4915961;29;20024;-81
2023/11/27 01:16:04;;;;;;;14.75;5.03;;;;;;;;;;4905003;29;20448;-82
2023/11/27 01:18:30;;;;;;;11.82;5.20;;;;;;;;;;4908679;29;20055;-81
2023/11/27 01:20:56;;;;;;;13.77;4.13;;;;;;;;;;4916776;29;20118;-81
2023/11/27 01:23:21;;;;;;;14.93;4.82;;;;;;;;;;4916090;29;20038;-82
2023/11/27 01:25:46;;;;;;;8.10;4.03;;;;;;;;;;4929118;29;20031;-81
2023/11/27 01:28:11;;;;;;;10.45;5.10;;;;;;;;;;4910891;29;20442;-81
2023/11/27 01:30:37;;;;;;;9.32;4.22;;;;;;;;;;4916526;29;20036;-81
2023/11/27 01:33:04;;;;;;;13.43;4.38;;;;;;;;;;4931849;29;20556;-81
2023/11/27 01:35:29;;;;;;;10.23;4.60;;;;;;;;;;4924387;29;20028;-81
2023/11/27 01:37:54;;;;;;;11.07;4.50;;;;;;;;;;4917548;29;20035;-81
2023/11/27 01:40:20;;;;;;;15.48;4.53;;;;;;;;;;4929294;29;20792;-81
2023/11/27 01:42:45;;;;;;;13.27;4.22;;;;;;;;;;4898239;29;20029;-81
2023/11/27 01:45:11;;;;;;;11.07;4.27;;;;;;;;;;4897854;29;20025;-82
2023/11/27 01:47:36;;;;;;;9.27;4.22;;;;;;;;;;4908291;29;20659;-81
2023/11/27 01:50:03;;;;;;;8.48;3.90;;;;;;;;;;4917396;29;20030;-81
2023/11/27 01:52:28;;;;;;;21.30;5.32;;;;;;;;;;4907347;29;20028;-81
2023/11/27 01:54:55;;;;;;;12.48;5.07;;;;;;;;;;4912353;29;20413;-81
2023/11/27 01:57:22;;;;;;;9.20;4.18;;;;;;;;;;4907886;29;20408;-82
2023/11/27 01:59:49;;;;;;;11.50;4.43;;;;;;;;;;4910262;29;20556;-81
2023/11/27 02:02:14;;;;;;;8.82;4.07;;;;;;;;;;4915802;29;20051;-81
2023/11/27 02:04:40;;;;;;;11.25;4.53;;;;;;;;;;4901120;29;20024;-81
2023/11/27 02:07:06;;;;;;;11.65;4.30;;;;;;;;;;4922718;29;20087;-81
2023/11/27 02:09:31;;;;;;;16.15;5.00;;;;;;;;;;4931631;29;20028;-81
2023/11/27 02:11:57;;;;;;;10.30;4.53;;;;;;;;;;4923350;29;20020;-82
2023/11/27 02:14:22;;;;;;;10.10;4.87;;;;;;;;;;4907952;29;20267;-82
2023/11/27 02:16:50;;;;;;;9.17;4.07;;;;;;;;;;4919930;29;20605;-81
2023/11/27 02:19:15;;;;;;;11.20;4.15;;;;;;;;;;4913323;29;20016;-81
2023/11/27 02:21:41;;;;;;;9.03;4.50;;;;;;;;;;4929824;29;20024;-81
2023/11/27 02:24:06;;;;;;;11.00;4.40;;;;;;;;;;4915055;29;20275;-81
2023/11/27 02:26:31;;;;;;;10.68;4.20;;;;;;;;;;4930925;29;20059;-82
2023/11/27 02:28:57;;;;;;;12.77;4.37;;;;;;;;;;4931103;29;20027;-81
2023/11/27 02:31:22;;;;;;;11.60;3.97;;;;;;;;;;4931397;29;20350;-81
2023/11/27 02:33:47;;;;;;;9.67;4.53;;;;;;;;;;4922029;29;20308;-82
2023/11/27 02:36:12;;;;;;;11.57;4.13;;;;;;;;;;4915915;29;20294;-81
2023/11/27 02:38:37;;;;;;;13.93;5.32;;;;;;;;;;4924744;29;20123;-81
2023/11/27 02:41:03;;;;;;;12.60;4.37;;;;;;;;;;4914602;29;20055;-81
2023/11/27 02:43:28;;;;;;;13.38;4.78;;;;;;;;;;4916397;29;20286;-81
2023/11/27 02:45:55;;;;;;;11.67;4.30;;;;;;;;;;4916418;29;20027;-82
2023/11/27 02:48:20;;;;;;;10.73;4.75;;;;;;;;;;4915794;29;20834;-81
2023/11/27 02:50:45;;;;;;;9.75;4.38;;;;;;;;;;4915208;29;20115;-81
2023/11/27 02:53:11;;;;;;;11.43;4.23;;;;;;;;;;4927674;29;20374;-81
2023/11/27 02:55:36;;;;;;;8.25;4.28;;;;;;;;;;4904442;29;20266;-82
2023/11/27 02:58:01;;;;;;;8.93;3.87;;;;;;;;;;4930955;29;20468;-81
2023/11/27 03:00:26;;;;;;;7.57;3.88;;;;;;;;;;4919907;29;20271;-82
2023/11/27 03:02:52;;;;;;;8.83;3.87;;;;;;;;;;4916019;29;20118;-81
2023/11/27 03:05:17;;;;;;;17.70;5.32;;;;;;;;;;4930760;29;20687;-81
2023/11/27 03:07:44;;;;;;;9.10;4.67;;;;;;;;;;4915556;29;20020;-82
2023/11/27 03:10:12;;;;;;;7.72;3.75;;;;;;;;;;4908229;29;20274;-81
2023/11/27 03:12:38;;;;;;;10.00;4.43;;;;;;;;;;4915792;29;20476;-81
2023/11/27 03:15:05;;;;;;;12.18;4.20;;;;;;;;;;4898269;29;20103;-81
2023/11/27 03:17:30;;;;;;;11.50;4.28;;;;;;;;;;4903955;29;20020;-82
2023/11/27 03:19:55;;;;;;;11.50;3.73;;;;;;;;;;4905435;29;20081;-82
2023/11/27 03:22:23;;;;;;;9.40;4.23;;;;;;;;;;4912265;29;20024;-82
2023/11/27 03:24:48;;;;;;;7.25;3.83;;;;;;;;;;4914492;29;20617;-82
2023/11/27 03:27:13;;;;;;;12.17;4.47;;;;;;;;;;4910046;29;20058;-82
2023/11/27 03:29:40;;;;;;;10.95;4.15;;;;;;;;;;4929833;29;20336;-82
2023/11/27 03:32:05;;;;;;;8.50;4.18;;;;;;;;;;4907115;29;20025;-82
2023/11/27 03:34:30;;;;;;;9.57;4.15;;;;;;;;;;4916067;29;20044;-82
2023/11/27 03:36:55;;;;;;;11.30;4.07;;;;;;;;;;4930091;29;20175;-82
2023/11/27 03:39:21;;;;;;;12.90;3.47;;;;;;;;;;4934373;29;20793;-81
2023/11/27 03:41:46;;;;;;;11.55;4.13;;;;;;;;;;4911788;29;20267;-81
2023/11/27 03:44:11;;;;;;;7.03;3.45;;;;;;;;;;4909976;29;20028;-81
2023/11/27 03:46:37;;;;;;;8.20;4.20;;;;;;;;;;4919632;29;20487;-81
2023/11/27 03:49:02;;;;;;;11.40;4.35;;;;;;;;;;4919638;29;20758;-81
2023/11/27 03:51:27;;;;;;;10.27;3.80;;;;;;;;;;4925864;29;20091;-82
2023/11/27 03:53:53;;;;;;;9.18;4.00;;;;;;;;;;4928675;29;20491;-81
2023/11/27 03:56:20;;;;;;;10.60;3.60;;;;;;;;;;4933971;29;20035;-82
2023/11/27 03:58:45;;;;;;;9.48;3.92;;;;;;;;;;4933512;29;20822;-81
2023/11/27 04:01:13;;;;;;;8.93;3.70;;;;;;;;;;4913786;29;20021;-81
2023/11/27 04:03:39;;;;;;;13.05;3.88;;;;;;;;;;4916017;29;20544;-81
2023/11/27 04:06:05;;;;;;;7.90;3.53;;;;;;;;;;4926006;29;20396;-81
2023/11/27 04:08:30;;;;;;;7.20;3.42;;;;;;;;;;4913587;29;20033;-82
2023/11/27 04:10:55;;;;;;;13.15;3.95;;;;;;;;;;4907657;29;20035;-82
2023/11/27 04:13:21;;;;;;;6.63;3.60;;;;;;;;;;4933893;29;20123;-81
2023/11/27 04:15:47;;;;;;;11.17;4.17;;;;;;;;;;4927015;29;20366;-81
2023/11/27 04:18:12;;;;;;;7.30;3.50;;;;;;;;;;4917450;29;20281;-82
2023/11/27 04:20:38;;;;;;;12.50;3.90;;;;;;;;;;4919108;29;20028;-82
2023/11/27 04:23:03;;;;;;;6.65;3.65;;;;;;;;;;4933395;29;20761;-81
2023/11/27 04:25:29;;;;;;;6.43;3.57;;;;;;;;;;4930631;29;20133;-81
2023/11/27 04:27:55;;;;;;;8.10;3.97;;;;;;;;;;4913392;29;20385;-81
2023/11/27 04:30:21;;;;;;;11.13;3.33;;;;;;;;;;4925244;29;20037;-82
2023/11/27 04:32:46;;;;;;;7.15;3.28;;;;;;;;;;4914467;29;20092;-81
2023/11/27 04:35:12;;;;;;;7.30;3.30;;;;;;;;;;4908260;29;20529;-81
2023/11/27 04:37:38;;;;;;;10.98;2.90;;;;;;;;;;4916640;29;20072;-82
2023/11/27 04:40:03;;;;;;;7.25;3.50;;;;;;;;;;4911077;29;20028;-81
2023/11/27 04:42:32;;;;;;;8.52;3.25;;;;;;;;;;4933028;29;20032;-82
2023/11/27 04:44:58;;;;;;;6.63;3.13;;;;;;;;;;4910519;29;20087;-82
2023/11/27 04:47:23;;;;;;;11.60;3.73;;;;;;;;;;4925980;29;20024;-81
2023/11/27 04:49:48;;;;;;;6.77;3.43;;;;;;;;;;4908985;29;20677;-82
2023/11/27 04:52:14;;;;;;;12.27;4.10;;;;;;;;;;4918438;29;20025;-82
2023/11/27 04:54:39;;;;;;;9.57;3.72;;;;;;;;;;4915843;29;20830;-80
2023/11/27 04:57:05;;;;;;;9.03;3.60;;;;;;;;;;4924599;29;20028;-80
2023/11/27 04:59:31;;;;;;;7.35;3.47;;;;;;;;;;4932949;29;20270;-80
2023/11/27 05:01:56;;;;;;;9.90;3.03;;;;;;;;;;4924337;29;20464;-80
2023/11/27 05:04:21;;;;;;;8.07;3.40;;;;;;;;;;4932064;29;20115;-79
2023/11/27 05:06:46;;;;;;;6.30;3.30;;;;;;;;;;4917755;29;20028;-79
2023/11/27 05:09:12;;;;;;;6.77;3.10;;;;;;;;;;4919099;29;20306;-79
2023/11/27 05:11:38;;;;;;;10.35;3.28;;;;;;;;;;4919089;29;20262;-79
2023/11/27 05:14:03;;;;;;;11.35;3.85;;;;;;;;;;4918309;29;20024;-79
2023/11/27 05:16:29;;;;;;;9.23;3.60;;;;;;;;;;4918775;29;20440;-79
2023/11/27 05:18:54;;;;;;;7.17;3.20;;;;;;;;;;4919032;29;20282;-79
2023/11/27 05:21:19;;;;;;;7.27;3.47;;;;;;;;;;4918882;29;20294;-79
2023/11/27 05:23:44;;;;;;;10.43;3.67;;;;;;;;;;4917451;29;20753;-79
2023/11/27 05:26:10;;;;;;;6.68;3.20;;;;;;;;;;4933255;29;20306;-79
2023/11/27 05:28:36;;;;;;;9.23;3.55;;;;;;;;;;4918776;29;20095;-79
2023/11/27 05:31:01;;;;;;;5.82;3.47;;;;;;;;;;4918713;29;20492;-79
2023/11/27 05:33:26;;;;;;;7.20;3.28;;;;;;;;;;4918772;29;20028;-79
2023/11/27 05:35:51;;;;;;;8.93;3.20;;;;;;;;;;4917359;29;20366;-79
2023/11/27 05:38:17;;;;;;;5.70;3.03;;;;;;;;;;4917361;29;20765;-79
2023/11/27 05:40:42;;;;;;;8.47;3.10;;;;;;;;;;4917309;29;20025;-79
2023/11/27 05:43:08;;;;;;;11.57;3.70;;;;;;;;;;4917131;29;20290;-79
2023/11/27 05:45:34;;;;;;;10.97;3.67;;;;;;;;;;4918479;29;20025;-79
2023/11/27 05:48:00;;;;;;;6.95;2.92;;;;;;;;;;4933087;29;20293;-79
2023/11/27 05:50:26;;;;;;;9.55;3.33;;;;;;;;;;4932938;29;20437;-79
2023/11/27 05:52:51;;;;;;;6.47;3.45;;;;;;;;;;4918355;29;20432;-79
2023/11/27 05:55:17;;;;;;;13.13;3.58;;;;;;;;;;4918230;29;20020;-79
2023/11/27 05:57:42;;;;;;;18.08;2.97;;;;;;;;;;4917012;29;20028;-79
2023/11/27 06:00:08;;;;;;;13.43;3.40;;;;;;;;;;4916160;29;20035;-79
2023/11/27 06:02:33;;;;;;;9.30;3.38;;;;;;;;;;4918179;29;20075;-79
2023/11/27 06:04:58;;;;;;;9.30;3.25;;;;;;;;;;4916938;29;20036;-80
2023/11/27 06:07:24;;;;;;;6.77;2.93;;;;;;;;;;4918034;29;20028;-79
2023/11/27 06:09:49;;;;;;;8.57;3.17;;;;;;;;;;4916812;29;20307;-79
2023/11/27 06:12:14;;;;;;;8.87;3.77;;;;;;;;;;4916743;29;20274;-79
2023/11/27 06:14:39;;;;;;;10.32;3.20;;;;;;;;;;4917921;29;20254;-79
2023/11/27 06:17:05;;;;;;;6.85;3.15;;;;;;;;;;4932472;29;20024;-79
2023/11/27 06:19:30;;;;;;;9.85;2.85;;;;;;;;;;4932412;29;20052;-79
2023/11/27 06:21:55;;;;;;;7.97;2.67;;;;;;;;;;4917712;29;20387;-79
2023/11/27 06:24:21;;;;;;;4.97;2.93;;;;;;;;;;4916458;29;20302;-80
2023/11/27 06:26:46;;;;;;;7.80;2.60;;;;;;;;;;4916233;29;20621;-79
2023/11/27 06:29:11;;;;;;;7.75;2.72;;;;;;;;;;4932292;29;20059;-80
2023/11/27 06:31:37;;;;;;;6.65;2.88;;;;;;;;;;4916390;29;20055;-79
2023/11/27 06:34:02;;;;;;;9.38;3.20;;;;;;;;;;4916396;29;20016;-79
2023/11/27 06:36:27;;;;;;;6.93;3.00;;;;;;;;;;4932116;29;20561;-79
2023/11/27 06:38:52;;;;;;;9.47;3.73;;;;;;;;;;4917657;29;20031;-79
2023/11/27 06:41:17;;;;;;;7.07;3.83;;;;;;;;;;4932036;29;20322;-79
2023/11/27 06:43:43;;;;;;;7.40;2.90;;;;;;;;;;4917310;29;20282;-79
2023/11/27 06:46:15;;;;;;;8.47;3.30;;;;;;;;;;4916153;29;20255;-79
2023/11/27 06:48:40;;;;;;;9.85;3.67;;;;;;;;;;4916189;29;20247;-79
2023/11/27 06:51:05;;;;;;;5.83;3.00;;;;;;;;;;4917364;29;20387;-79
2023/11/27 06:53:31;;;;;;;10.20;3.28;;;;;;;;;;4916080;29;20799;-79
2023/11/27 06:55:56;;;;;;;10.77;3.00;;;;;;;;;;4917390;29;20020;-79
2023/11/27 06:58:21;;;;;;;4.77;2.73;;;;;;;;;;4931809;29;20044;-79
2023/11/27 07:00:46;;;;;;;6.37;3.10;;;;;;;;;;4917225;29;20251;-79
2023/11/27 07:03:12;;;;;;;9.90;2.90;;;;;;;;;;4917148;29;20285;-79
2023/11/27 07:05:37;;;;;;;10.73;3.87;;;;;;;;;;4915954;29;20437;-79
2023/11/27 07:08:03;;;;;;;10.68;3.72;;;;;;;;;;4915928;29;20644;-79
2023/11/27 07:10:29;;;;;;;7.00;2.90;;;;;;;;;;4916984;29;20021;-79
2023/11/27 07:12:54;;;;;;;7.20;3.38;;;;;;;;;;4915832;29;20453;-79
2023/11/27 07:15:20;;;;;;;5.60;3.20;;;;;;;;;;4917058;29;20024;-79
2023/11/27 07:17:45;;;;;;;9.25;3.25;;;;;;;;;;4917078;29;20024;-79
2023/11/27 07:20:17;;;;;;;7.63;3.25;;;;;;;;;;4915819;29;20028;-79
2023/11/27 07:22:42;;;;;;;;;;;;;;;;;;4917317;29;20024;-79
2023/11/27 07:25:08;;;;;;;6.57;2.70;;;;;;;;;;4917012;29;19914;-79
2023/11/27 07:27:33;;;;;;;7.87;2.87;;;;;;;;;;4915520;29;20783;-79
2023/11/27 07:29:58;;;;;;;6.25;3.28;;;;;;;;;;4915737;29;20262;-79
2023/11/27 07:32:24;;;;;;;7.67;3.57;;;;;;;;;;4915721;29;20056;-79
2023/11/27 07:34:49;;;;;;;10.45;2.92;;;;;;;;;;4915656;29;20263;-79
2023/11/27 07:37:14;;;;;;;8.60;3.10;;;;;;;;;;4916923;29;20035;-79
2023/11/27 07:39:40;;;;;;;7.10;3.30;;;;;;;;;;4915626;29;20322;-79
2023/11/27 07:42:06;;;;;;;4.87;2.70;;;;;;;;;;4931507;29;20667;-79
2023/11/27 07:44:31;;;;;;;8.75;3.22;;;;;;;;;;4931349;29;20365;-79
2023/11/27 07:46:57;;;;;;;7.50;3.20;;;;;;;;;;4915569;29;20074;-79
2023/11/27 07:49:22;;;;;;;8.90;3.07;;;;;;;;;;4917328;29;20018;-79
2023/11/27 07:51:48;;;;;;;8.98;3.05;;;;;;;;;;4916801;29;20255;-79
2023/11/27 07:54:13;;;;;;;6.90;3.03;;;;;;;;;;4916765;29;20095;-79
2023/11/27 07:56:38;;;;;;;6.35;3.40;;;;;;;;;;4915524;29;20024;-79
2023/11/27 07:59:03;;;;;;;11.93;3.13;;;;;;;;;;4931349;29;20123;-79
2023/11/27 08:01:31;;;;;;;10.32;3.53;;;;;;;;;;4916750;29;20728;-79
2023/11/27 08:03:57;;;;;;;8.18;2.70;;;;;;;;;;4915333;29;20118;-79
2023/11/27 08:06:24;;;;;;;10.52;3.92;;;;;;;;;;4916990;29;20024;-79
2023/11/27 08:08:50;;;;;;;8.10;3.45;;;;;;;;;;4916751;29;20027;-79
2023/11/27 08:11:15;;;;;;;8.27;3.53;;;;;;;;;;4915385;29;20017;-79
2023/11/27 08:13:43;;;;;;;12.87;4.03;;;;;;;;;;4915301;29;20259;-79
2023/11/27 08:16:09;;;;;;;7.80;3.55;;;;;;;;;;4916494;29;20338;-79
2023/11/27 08:18:35;;;;;;;8.10;3.10;;;;;;;;;;4931200;29;20092;-79
2023/11/27 08:21:05;;;;;;;9.25;3.10;;;;;;;;;;4931090;29;20028;-79
2023/11/27 08:23:30;;;;;;;8.93;3.40;;;;;;;;;;4918270;29;20020;-79
2023/11/27 08:25:56;;;;;;;6.93;3.05;;;;;;;;;;4918590;29;20020;-79
2023/11/27 08:28:21;;;;;;;13.23;3.38;;;;;;;;;;4918576;29;20023;-79
2023/11/27 08:30:46;;;;;;;7.80;2.95;;;;;;;;;;4934411;29;20115;-79
2023/11/27 08:33:12;;;;;;;5.32;2.90;;;;;;;;;;4934288;29;20024;-79
2023/11/27 08:35:37;;;;;;;14.07;4.00;;;;;;;;;;4919763;29;20055;-79
2023/11/27 08:38:02;;;;;;;9.90;3.37;;;;;;;;;;4919716;29;20254;-79
2023/11/27 08:40:28;;;;;;;9.05;3.10;;;;;;;;;;4934250;29;20262;-79
2023/11/27 08:42:53;;;;;;;9.10;3.35;;;;;;;;;;4919510;29;20102;-79
2023/11/27 08:45:18;;;;;;;11.40;3.43;;;;;;;;;;4918334;29;20020;-79
2023/11/27 08:47:52;;;;;;;12.00;3.05;;;;;;;;;;4919544;29;20301;-79
2023/11/27 08:50:18;;;;;;;8.75;2.78;;;;;;;;;;4918216;29;20083;-79
2023/11/27 08:52:44;;;;;;;10.13;3.22;;;;;;;;;;4918196;29;20393;-79
2023/11/27 08:55:09;;;;;;;8.77;3.20;;;;;;;;;;4919455;29;20580;-79
2023/11/27 08:57:35;;;;;;;6.80;2.65;;;;;;;;;;4933987;29;20059;-79
2023/11/27 09:00:10;;;;;;;9.20;2.92;;;;;;;;;;4917997;29;20485;-79
2023/11/27 09:02:38;;;;;;;7.35;3.40;;;;;;;;;;4919178;29;20163;-78
2023/11/27 09:05:03;;;;;;;5.25;2.95;;;;;;;;;;4918017;29;20027;-79
2023/11/27 09:07:28;;;;;;;9.63;3.85;;;;;;;;;;4917948;29;20481;-79
2023/11/27 09:09:54;;;;;;;10.70;3.27;;;;;;;;;;4919143;29;20016;-79
2023/11/27 09:12:19;;;;;;;7.17;2.83;;;;;;;;;;4919062;29;20267;-79
2023/11/27 09:14:44;;;;;;;14.10;3.87;;;;;;;;;;4933589;29;20274;-79
2023/11/27 09:17:10;;;;;;;8.83;3.47;;;;;;;;;;4917740;29;20262;-78
2023/11/27 09:19:35;;;;;;;7.78;3.38;;;;;;;;;;4919009;29;20247;-78
2023/11/27 09:22:01;;;;;;;9.37;3.60;;;;;;;;;;4918857;29;20038;-78
2023/11/27 09:24:26;;;;;;;13.90;3.80;;;;;;;;;;4917528;29;20271;-79
2023/11/27 09:26:52;;;;;;;13.20;4.18;;;;;;;;;;4918680;29;20375;-78
2023/11/27 09:29:17;;;;;;;7.72;3.33;;;;;;;;;;4918749;29;20095;-79
2023/11/27 09:31:42;;;;;;;11.00;3.60;;;;;;;;;;4933351;29;20052;-79
2023/11/27 09:34:07;;;;;;;13.83;3.50;;;;;;;;;;4917380;29;20263;-79
2023/11/27 09:36:33;;;;;;;9.87;3.87;;;;;;;;;;4917388;29;20302;-79
2023/11/27 09:38:58;;;;;;;9.93;3.23;;;;;;;;;;4917353;29;20250;-79
2023/11/27 09:41:23;;;;;;;13.15;3.55;;;;;;;;;;4933103;29;20250;-79
2023/11/27 09:43:49;;;;;;;9.18;3.70;;;;;;;;;;4917210;29;20120;-79
2023/11/27 09:46:18;;;;;;;6.97;2.97;;;;;;;;;;4933094;29;20358;-79
2023/11/27 09:48:44;;;;;;;8.85;3.10;;;;;;;;;;4917234;29;20769;-78
2023/11/27 09:51:13;;;;;;;9.93;3.38;;;;;;;;;;4917168;29;20369;-79
2023/11/27 09:53:45;;;;;;;9.88;3.45;;;;;;;;;;4917071;29;20024;-79
2023/11/27 09:56:13;;;;;;;8.93;3.28;;;;;;;;;;4918332;29;20047;-79
2023/11/27 09:58:42;;;;;;;5.88;3.15;;;;;;;;;;4918320;29;20031;-79
2023/11/27 10:01:10;;;;;;;9.68;3.58;;;;;;;;;;4918176;29;20461;-79
2023/11/27 10:03:36;;;;;;;9.45;3.38;;;;;;;;;;4918129;29;20024;-79
2023/11/27 10:06:02;;;;;;;11.27;2.80;;;;;;;;;;4916857;29;20016;-78
2023/11/27 10:08:28;;;;;;;11.90;2.90;;;;;;;;;;4916862;29;20473;-79
2023/11/27 10:10:56;;;;;;;8.97;3.50;;;;;;;;;;4916771;29;20036;-79
2023/11/27 10:13:29;;;;;;;13.98;3.10;;;;;;;;;;4916716;29;20259;-78
2023/11/27 10:15:58;;;;;;;7.25;3.20;;;;;;;;;;4916754;29;20027;-78
2023/11/27 10:18:24;;;;;;;13.32;3.55;;;;;;;;;;4917922;29;20515;-78
2023/11/27 10:20:50;;;;;;;11.77;3.65;;;;;;;;;;4917896;29;20502;-78
2023/11/27 10:23:15;;;;;;;8.60;3.95;;;;;;;;;;4916472;29;20024;-79
2023/11/27 10:25:40;;;;;;;8.45;3.20;;;;;;;;;;4916476;29;20016;-78
2023/11/27 10:28:06;;;;;;;11.53;3.87;;;;;;;;;;4917573;29;20058;-78
2023/11/27 10:30:31;;;;;;;13.43;3.35;;;;;;;;;;4917770;29;20338;-78
2023/11/27 10:32:56;;;;;;;10.85;3.83;;;;;;;;;;4916399;29;20028;-78
2023/11/27 10:35:24;;;;;;;7.28;3.10;;;;;;;;;;4916343;29;20032;-78
2023/11/27 10:37:49;;;;;;;9.18;3.58;;;;;;;;;;4916333;29;20366;-78
2023/11/27 10:40:16;;;;;;;9.68;3.03;;;;;;;;;;4932098;29;20035;-78
2023/11/27 10:42:44;;;;;;;17.58;3.35;;;;;;;;;;4931983;29;20024;-78
2023/11/27 10:45:10;;;;;;;8.43;3.38;;;;;;;;;;4915891;29;20388;-78
2023/11/27 10:47:37;;;;;;;5.05;2.60;;;;;;;;;;4932010;29;20020;-78
2023/11/27 10:50:03;;;;;;;7.85;2.45;;;;;;;;;;4931945;29;20016;-78
2023/11/27 10:52:28;;;;;;;6.68;2.75;;;;;;;;;;4931903;29;20047;-78
2023/11/27 10:54:56;;;;;;;7.50;2.53;;;;;;;;;;4917365;29;20040;-78
2023/11/27 10:57:22;;;;;;;5.43;2.92;;;;;;;;;;4917328;29;20362;-78
2023/11/27 10:59:48;;;;;;;9.75;3.15;;;;;;;;;;4931879;29;20024;-79
2023/11/27 11:02:13;;;;;;;6.38;2.92;;;;;;;;;;4916054;29;20504;-78
2023/11/27 11:04:39;;;;;;;7.60;3.23;;;;;;;;;;4917066;29;20048;-78
2023/11/27 11:07:07;;;;;;;4.75;2.65;;;;;;;;;;4917237;29;20330;-78
2023/11/27 11:09:34;;;;;;;9.63;3.33;;;;;;;;;;4917352;29;20102;-78
2023/11/27 11:12:00;;;;;;;6.32;3.35;;;;;;;;;;4915878;29;20016;-78
2023/11/27 11:14:26;;;;;;;6.78;2.78;;;;;;;;;;4915900;29;20039;-78
2023/11/27 11:17:11;;;;;;;9.45;3.33;;;;;;;;;;4915864;29;20047;-78
2023/11/27 11:19:59;;;;;;;10.45;3.10;;;;;;;;;;4915793;29;20032;-78
2023/11/27 11:22:43;;;;;;;5.50;2.50;;;;;;;;;;4915304;29;20028;-78
2023/11/27 11:25:19;;;;;;;6.20;2.55;;;;;;;;;;4931613;29;20503;-79
2023/11/27 11:27:56;;;;;;;4.90;2.50;;;;;;;;;;4931432;29;20048;-78
2023/11/27 11:30:21;;;;;;;4.45;2.10;;;;;;;;;;4916935;29;20480;-78
2023/11/27 11:32:47;;;;;;;5.40;2.50;;;;;;;;;;4916872;29;20063;-78
2023/11/27 11:35:13;;;;;;;2.63;1.67;;;;;;;;;;4915746;29;20251;-78
2023/11/27 11:37:47;;;;;;;7.28;2.22;;;;;;;;;;4916974;29;20028;-78
2023/11/27 11:40:16;;;;;;;7.38;2.22;;;;;;;;;;4915645;29;20119;-78
2023/11/27 11:42:47;;;;;;;2.85;2.08;;;;;;;;;;4931441;29;20391;-78
2023/11/27 11:45:27;;;;;;;5.90;2.33;;;;;;;;;;4916872;29;20056;-78
2023/11/27 11:47:56;;;;;;;4.13;2.13;;;;;;;;;;4916807;29;20048;-78
2023/11/27 11:50:25;;;;;;;5.03;2.00;;;;;;;;;;4915571;29;20028;-78
2023/11/27 11:52:52;;;;;;;6.63;1.88;;;;;;;;;;4915539;29;20060;-78
2023/11/27 11:55:21;;;;;;;7.40;2.20;;;;;;;;;;4915516;29;20039;-78
2023/11/27 11:57:48;;;;;;;4.07;1.90;;;;;;;;;;4917721;29;20503;-78
2023/11/27 12:00:19;;;;;;;3.10;1.77;;;;;;;;;;4920473;29;20024;-78
2023/11/27 12:02:45;;;;;;;2.33;1.63;;;;;;;;;;4919038;29;20028;-78
2023/11/27 12:05:12;;;;;;;3.80;1.98;;;;;;;;;;4920369;29;20024;-78
2023/11/27 12:07:38;;;;;;;5.20;2.05;;;;;;;;;;4918988;29;20493;-78
2023/11/27 12:10:06;;;;;;;5.13;1.73;;;;;;;;;;4920291;29;20099;-78
2023/11/27 12:12:31;;;;;;;4.45;2.05;;;;;;;;;;4920263;29;20420;-78
2023/11/27 12:14:56;;;;;;;4.75;2.35;;;;;;;;;;4920107;29;20099;-78
2023/11/27 12:17:22;;;;;;;5.88;2.10;;;;;;;;;;4918783;29;20020;-78
2023/11/27 12:19:47;;;;;;;5.07;2.17;;;;;;;;;;4918812;29;20472;-79
2023/11/27 12:22:13;;;;;;;10.07;1.67;;;;;;;;;;4934572;29;20028;-78
2023/11/27 12:24:44;;;;;;;4.93;2.08;;;;;;;;;;4919974;29;20384;-78
2023/11/27 12:27:11;;;;;;;5.97;1.88;;;;;;;;;;4919825;29;20052;-79
2023/11/27 12:29:38;;;;;;;3.90;1.90;;;;;;;;;;4919963;29;20090;-78
2023/11/27 12:32:04;;;;;;;14.25;1.88;;;;;;;;;;4919910;29;20020;-78
2023/11/27 12:34:29;;;;;;;4.72;2.08;;;;;;;;;;4934378;29;20016;-79
2023/11/27 12:36:54;;;;;;;4.80;2.07;;;;;;;;;;4918542;29;20028;-78
2023/11/27 12:39:26;;;;;;;4.17;2.07;;;;;;;;;;4918417;29;20310;-78
2023/11/27 12:41:59;;;;;;;7.72;2.03;;;;;;;;;;4919713;29;20688;-78
2023/11/27 12:44:24;;;;;;;8.68;2.22;;;;;;;;;;4934093;29;20031;-78
2023/11/27 12:46:52;;;;;;;3.43;1.87;;;;;;;;;;4919548;29;20024;-78
2023/11/27 12:49:21;;;;;;;4.25;1.95;;;;;;;;;;4918285;29;20342;-78
2023/11/27 12:51:46;;;;;;;10.88;2.55;;;;;;;;;;4918247;29;20477;-78
2023/11/27 12:54:18;;;;;;;5.63;2.10;;;;;;;;;;4919514;29;20028;-78
2023/11/27 12:56:50;;;;;;;5.22;2.17;;;;;;;;;;4918156;29;20035;-79
2023/11/27 12:59:16;;;;;;;3.88;2.20;;;;;;;;;;4919436;29;20437;-79
2023/11/27 13:01:52;;;;;;;4.97;2.47;;;;;;;;;;4918054;29;20020;-78
2023/11/27 13:04:18;;;;;;;6.13;1.98;;;;;;;;;;4933828;29;20540;-78
2023/11/27 13:06:44;;;;;;;5.45;2.65;;;;;;;;;;4917971;29;20137;-78
2023/11/27 13:09:09;;;;;;;6.47;2.60;;;;;;;;;;4918754;29;20480;-79
2023/11/27 13:11:34;;;;;;;3.50;2.30;;;;;;;;;;4919148;29;20254;-78
2023/11/27 13:14:07;;;;;;;3.03;2.03;;;;;;;;;;4918179;29;20282;-78
2023/11/27 13:16:33;;;;;;;6.72;2.53;;;;;;;;;;4917839;29;20353;-78
2023/11/27 13:18:58;;;;;;;5.55;2.78;;;;;;;;;;4917761;29;20032;-78
2023/11/27 13:21:32;;;;;;;5.18;2.47;;;;;;;;;;4917716;29;20024;-78
2023/11/27 13:23:57;;;;;;;5.40;2.72;;;;;;;;;;4918811;29;20079;-78
2023/11/27 13:26:28;;;;;;;5.57;2.42;;;;;;;;;;4917493;29;20119;-78
2023/11/27 13:28:53;;;;;;;7.00;2.80;;;;;;;;;;4918875;29;20523;-78
2023/11/27 13:31:19;;;;;;;8.50;2.85;;;;;;;;;;4917510;29;20016;-79
2023/11/27 13:33:44;;;;;;;6.10;2.70;;;;;;;;;;4918754;29;20028;-78
2023/11/27 13:36:18;;;;;;;6.80;2.80;;;;;;;;;;4918713;29;20278;-79
2023/11/27 13:38:47;;;;;;;5.05;2.38;;;;;;;;;;4918659;29;20337;-79
2023/11/27 13:41:14;;;;;;;6.40;2.15;;;;;;;;;;4917368;29;20028;-79
2023/11/27 13:43:40;;;;;;;6.18;2.65;;;;;;;;;;4918544;29;20020;-79
2023/11/27 13:46:07;;;;;;;3.95;2.03;;;;;;;;;;4918469;29;20024;-79
2023/11/27 13:48:34;;;;;;;5.03;2.75;;;;;;;;;;4918594;29;20071;-78
2023/11/27 13:51:12;;;;;;;6.07;2.30;;;;;;;;;;4917181;29;20556;-78
2023/11/27 13:53:38;;;;;;;8.05;2.50;;;;;;;;;;4932943;29;20031;-78
2023/11/27 13:56:06;;;;;;;5.18;2.00;;;;;;;;;;4932867;29;20031;-78
2023/11/27 13:58:32;;;;;;;5.05;2.33;;;;;;;;;;4917097;29;20111;-78
2023/11/27 14:01:19;;;;;;;6.13;2.63;;;;;;;;;;4918204;29;20024;-78
2023/11/27 14:03:43;;;;;;;5.68;2.60;;;;;;;;;;4917716;29;20040;-78
2023/11/27 14:06:23;;;;;;;5.80;2.00;;;;;;;;;;4916881;29;20024;-78
2023/11/27 14:08:51;;;;;;;10.55;2.28;;;;;;;;;;4916823;29;20255;-78
2023/11/27 14:11:27;;;;;;;5.05;2.47;;;;;;;;;;4916776;29;20051;-78
2023/11/27 14:13:54;;;;;;;5.03;2.08;;;;;;;;;;4916764;29;20024;-78
2023/11/27 14:16:20;;;;;;;4.15;2.22;;;;;;;;;;4901138;29;20118;-78
2023/11/27 14:20:45;;;;;;;5.97;2.05;;;;;;;;;;4917957;29;20100;-78
2023/11/27 14:27:16;;;;;;;7.07;2.83;;;;;;;;;;4902434;29;20052;-78
2023/11/27 14:29:39;;;;;;;4.55;2.13;;;;;;;;;;4917602;29;20056;-79
2023/11/27 14:32:07;;;;;;;5.67;2.13;;;;;;;;;;4916489;29;20043;-78
2023/11/27 14:34:33;;;;;;;6.93;2.25;;;;;;;;;;4917663;29;20266;-78
2023/11/27 14:36:58;;;;;;;4.53;1.80;;;;;;;;;;4917699;29;20035;-78
2023/11/27 14:39:26;;;;;;;8.60;2.08;;;;;;;;;;4916271;29;20026;-78